Terminal Aerodrome Forecast
Issued by NWS

Home | Current Version | Previous Version | Graphics & Text | Print | Product List | Glossary On
Versions: 1 2 3 4 5 6 7 8 9 10 11 12 13 14 15 16
000
FTUS43 KMPX 190500
TAFRNH
TAF
KRNH 190526Z 1906/2006 18005KT P6SM BKN200
     FM191300 19008KT P6SM SCT150
     FM191600 22011G16KT P6SM SCT150
     FM192300 26005KT P6SM SKC=

USA.gov is the U.S. government's official web portal to all federal, state and local government web resources and services.